createdAt,value
2022-09-12T00:01:50.576Z,92.50
2022-09-12T00:04:17.322Z,92.50
2022-09-12T00:06:43.943Z,92.50
2022-09-12T00:09:12.187Z,92.50
2022-09-12T00:11:39.678Z,92.50
2022-09-12T00:14:06.890Z,92.50
2022-09-12T00:16:34.370Z,92.50
2022-09-12T00:19:01.700Z,92.50
2022-09-12T00:21:28.350Z,92.60
2022-09-12T00:23:55.304Z,92.70
2022-09-12T00:26:22.016Z,92.70
2022-09-12T00:28:48.702Z,92.80
2022-09-12T00:31:25.189Z,92.90
2022-09-12T00:33:52.218Z,92.90
2022-09-12T00:36:20.236Z,92.90
2022-09-12T00:38:47.489Z,93.00
2022-09-12T00:41:17.267Z,93.00
2022-09-12T00:43:45.515Z,93.10
2022-09-12T00:46:15.192Z,93.10
2022-09-12T00:48:43.826Z,93.10
2022-09-12T00:51:10.755Z,93.30
2022-09-12T00:53:38.345Z,93.30
2022-09-12T00:56:04.971Z,93.30
2022-09-12T00:58:37.168Z,93.30
2022-09-12T01:01:03.881Z,93.20
2022-09-12T01:03:30.541Z,93.30
2022-09-12T01:05:57.098Z,93.30
2022-09-12T01:08:24.923Z,93.30
2022-09-12T01:10:52.227Z,93.20
2022-09-12T01:13:18.890Z,93.30
2022-09-12T01:15:45.819Z,93.30
2022-09-12T01:18:18.994Z,93.30
2022-09-12T01:21:03.938Z,93.60
2022-09-12T01:23:50.748Z,93.60
2022-09-12T01:26:20.395Z,93.80
2022-09-12T01:28:58.007Z,93.80
2022-09-12T01:31:30.740Z,93.80
2022-09-12T01:34:06.700Z,93.80
2022-09-12T01:36:56.122Z,93.70
2022-09-12T01:39:28.827Z,93.70
2022-09-12T01:42:16.407Z,93.60
2022-09-12T01:44:59.173Z,93.60
2022-09-12T01:47:39.231Z,93.60
2022-09-12T01:50:07.269Z,93.60
2022-09-12T01:52:44.018Z,93.70
2022-09-12T01:55:17.575Z,93.70
2022-09-12T01:57:51.146Z,93.90
2022-09-12T02:00:17.843Z,93.80
2022-09-12T02:02:51.859Z,93.80
2022-09-12T02:05:47.684Z,93.90
2022-09-12T02:08:19.160Z,93.90
2022-09-12T02:11:00.511Z,93.90
2022-09-12T02:13:37.516Z,93.90
2022-09-12T02:16:13.098Z,93.90
2022-09-12T02:18:43.200Z,93.90
2022-09-12T02:21:10.025Z,93.90
2022-09-12T02:23:39.215Z,93.90
2022-09-12T02:26:13.015Z,94.00
2022-09-12T02:28:41.829Z,94.00
2022-09-12T02:31:22.971Z,94.00
2022-09-12T02:34:04.719Z,94.00
2022-09-12T02:36:34.458Z,94.00
2022-09-12T02:39:01.324Z,94.00
2022-09-12T02:41:28.086Z,94.10
2022-09-12T02:43:54.710Z,94.10
2022-09-12T02:46:23.219Z,94.10
2022-09-12T02:48:49.853Z,94.10
2022-09-12T02:51:20.301Z,94.10
2022-09-12T02:53:49.533Z,94.10
2022-09-12T02:56:24.779Z,94.10
2022-09-12T02:58:51.930Z,94.10
2022-09-12T03:01:36.797Z,94.10
2022-09-12T03:04:03.370Z,94.10
2022-09-12T03:06:53.159Z,94.10
2022-09-12T03:09:23.242Z,94.10
2022-09-12T03:11:52.518Z,94.10
2022-09-12T03:14:35.620Z,94.40
2022-09-12T03:17:08.092Z,94.20
2022-09-12T03:19:58.691Z,94.20
2022-09-12T03:22:30.054Z,94.10
2022-09-12T03:25:05.663Z,94.10
2022-09-12T03:27:34.854Z,94.20
2022-09-12T03:30:01.660Z,94.20
2022-09-12T03:32:45.040Z,94.20
2022-09-12T03:35:11.948Z,94.30
2022-09-12T03:37:38.977Z,94.20
2022-09-12T03:40:06.434Z,94.30
2022-09-12T03:42:33.077Z,94.30
2022-09-12T03:44:59.723Z,94.60
2022-09-12T03:47:26.285Z,94.30
2022-09-12T03:49:52.871Z,94.30
2022-09-12T03:52:19.826Z,94.20
2022-09-12T03:54:46.403Z,94.30
2022-09-12T03:57:12.970Z,94.40
2022-09-12T03:59:39.560Z,94.40
2022-09-12T04:02:06.524Z,94.50
2022-09-12T04:04:33.302Z,94.50
2022-09-12T04:06:59.892Z,94.50
2022-09-12T04:09:26.461Z,94.60
2022-09-12T04:11:53.011Z,94.60
2022-09-12T04:14:19.571Z,94.70
2022-09-12T04:16:46.209Z,94.70
2022-09-12T04:19:12.823Z,94.80
2022-09-12T04:21:40.094Z,94.70
2022-09-12T04:24:06.853Z,94.80
2022-09-12T04:26:33.485Z,94.80
2022-09-12T04:29:00.095Z,94.90
2022-09-12T04:31:26.947Z,95.40
2022-09-12T04:33:55.009Z,95.50
2022-09-12T04:36:22.814Z,95.40
2022-09-12T04:38:49.732Z,95.60
2022-09-12T04:41:18.415Z,95.90
2022-09-12T04:43:48.307Z,96.50
2022-09-12T04:46:17.239Z,97.00
2022-09-12T04:48:43.953Z,96.50
2022-09-12T04:51:12.184Z,96.30
2022-09-12T04:53:39.093Z,96.40
2022-09-12T04:56:06.955Z,96.40
2022-09-12T04:58:33.567Z,96.30
2022-09-12T05:01:11.609Z,96.30
2022-09-12T05:03:43.402Z,96.80
2022-09-12T05:06:14.665Z,96.40
2022-09-12T05:08:41.395Z,96.30
2022-09-12T05:11:10.175Z,96.30
2022-09-12T05:13:36.919Z,96.30
2022-09-12T05:16:04.575Z,96.40
2022-09-12T05:18:32.260Z,96.40
2022-09-12T05:20:59.346Z,96.30
2022-09-12T05:23:26.278Z,96.30
2022-09-12T05:25:53.579Z,96.50
2022-09-12T05:28:21.212Z,96.30
2022-09-12T05:30:48.436Z,96.40
2022-09-12T05:33:15.431Z,96.40
2022-09-12T05:35:41.980Z,96.40
2022-09-12T05:38:08.569Z,96.30
2022-09-12T05:40:35.251Z,96.30
2022-09-12T05:43:01.877Z,96.30
2022-09-12T05:45:29.427Z,96.60
2022-09-12T05:47:56.042Z,96.30
2022-09-12T05:50:22.703Z,96.50
2022-09-12T05:52:50.523Z,96.30
2022-09-12T05:55:17.223Z,96.30
2022-09-12T05:57:46.003Z,96.30
2022-09-12T06:00:14.609Z,97.00
2022-09-12T06:02:42.464Z,96.50
2022-09-12T06:05:09.176Z,96.60
2022-09-12T06:07:36.087Z,96.90
2022-09-12T06:10:03.560Z,97.00
2022-09-12T06:12:30.211Z,97.30
2022-09-12T06:14:56.788Z,97.10
2022-09-12T06:17:23.478Z,97.20
2022-09-12T06:19:50.948Z,97.20
2022-09-12T06:22:18.820Z,97.20
2022-09-12T06:24:45.575Z,97.20
2022-09-12T06:27:12.475Z,97.20
2022-09-12T06:29:39.072Z,97.30
2022-09-12T06:32:06.915Z,97.20
2022-09-12T06:34:33.819Z,97.90
2022-09-12T06:37:00.440Z,97.50
2022-09-12T06:39:27.040Z,97.40
2022-09-12T06:41:54.211Z,97.80
2022-09-12T06:44:32.975Z,97.60
2022-09-12T06:46:59.599Z,97.70
2022-09-12T06:49:26.343Z,97.70
2022-09-12T06:51:52.901Z,98.40
2022-09-12T06:54:20.054Z,97.80
2022-09-12T06:56:46.718Z,97.90
2022-09-12T06:59:13.378Z,97.70
2022-09-12T07:01:41.752Z,97.70
2022-09-12T07:04:08.715Z,97.80
2022-09-12T07:06:37.097Z,97.80
2022-09-12T07:09:05.432Z,97.90
2022-09-12T07:11:33.707Z,98.20
2022-09-12T07:14:01.302Z,98.10
2022-09-12T07:16:28.250Z,97.90
2022-09-12T07:18:55.808Z,98.40
2022-09-12T07:21:22.810Z,98.40
2022-09-12T07:23:51.705Z,98.30
2022-09-12T07:26:18.612Z,98.10
2022-09-12T07:28:45.158Z,98.40
2022-09-12T07:31:16.217Z,98.20
2022-09-12T07:33:43.795Z,98.20
2022-09-12T07:36:11.813Z,98.10
2022-09-12T07:38:38.876Z,98.10
2022-09-12T07:41:16.714Z,98.00
2022-09-12T07:43:43.376Z,98.30
2022-09-12T07:46:10.434Z,98.70
2022-09-12T07:48:38.059Z,98.40
2022-09-12T07:51:05.631Z,99.00
2022-09-12T07:53:36.869Z,99.00
2022-09-12T07:56:04.407Z,99.20
2022-09-12T07:58:31.512Z,98.90
2022-09-12T08:01:04.909Z,98.90
2022-09-12T08:03:31.671Z,98.80
2022-09-12T08:06:07.226Z,98.70
2022-09-12T08:08:34.275Z,99.10
2022-09-12T08:11:01.716Z,99.20
2022-09-12T08:13:28.845Z,99.20
2022-09-12T08:15:59.819Z,99.00
2022-09-12T08:18:27.045Z,99.20
2022-09-12T08:21:00.563Z,99.10
2022-09-12T08:23:28.656Z,98.60
2022-09-12T08:25:55.799Z,98.30
2022-09-12T08:28:22.442Z,98.70
2022-09-12T08:30:49.403Z,98.50
2022-09-12T08:33:15.978Z,98.20
2022-09-12T08:35:42.578Z,97.90
2022-09-12T08:38:09.557Z,97.30
2022-09-12T08:40:59.399Z,97.60
2022-09-12T08:43:36.443Z,97.60
2022-09-12T08:46:13.947Z,97.20
2022-09-12T08:48:41.256Z,97.10
2022-09-12T08:51:10.911Z,97.10
2022-09-12T08:53:38.328Z,97.10
2022-09-12T08:56:06.004Z,96.90
2022-09-12T08:58:37.332Z,96.60
2022-09-12T09:01:23.867Z,96.70
2022-09-12T09:04:01.149Z,96.60
2022-09-12T09:06:28.043Z,96.00
2022-09-12T09:08:58.437Z,96.20
2022-09-12T09:11:34.210Z,96.10
2022-09-12T09:14:31.758Z,96.10
2022-09-12T09:17:00.136Z,95.90
2022-09-12T09:19:30.713Z,96.10
2022-09-12T09:22:00.211Z,96.10
2022-09-12T09:24:31.338Z,95.70
2022-09-12T09:27:00.038Z,95.20
2022-09-12T09:29:30.046Z,95.20
2022-09-12T09:31:59.369Z,95.10
2022-09-12T09:34:30.052Z,95.20
2022-09-12T09:37:35.688Z,95.30
2022-09-12T09:40:02.719Z,94.80
2022-09-12T09:42:44.717Z,94.40
2022-09-12T09:45:21.460Z,94.30
2022-09-12T09:48:08.709Z,94.10
2022-09-12T09:50:36.135Z,94.30
2022-09-12T09:53:03.792Z,93.60
2022-09-12T09:55:41.246Z,93.50
2022-09-12T09:58:07.995Z,93.60
2022-09-12T10:00:35.938Z,93.40
2022-09-12T10:03:04.726Z,93.50
2022-09-12T10:05:33.479Z,93.70
2022-09-12T10:08:00.351Z,93.20
2022-09-12T10:10:26.939Z,93.40
2022-09-12T10:13:06.989Z,92.60
2022-09-12T10:15:34.614Z,92.80
2022-09-12T10:18:03.037Z,92.70
2022-09-12T10:20:40.360Z,92.70
2022-09-12T10:23:16.329Z,92.80
2022-09-12T10:25:45.859Z,92.60
2022-09-12T10:28:20.487Z,91.80
2022-09-12T10:30:51.435Z,91.90
2022-09-12T10:33:18.245Z,91.30
2022-09-12T10:35:49.380Z,91.50
2022-09-12T10:38:27.262Z,91.00
2022-09-12T10:40:56.128Z,91.00
2022-09-12T10:43:25.665Z,91.20
2022-09-12T10:45:56.466Z,90.90
2022-09-12T10:48:29.907Z,91.00
2022-09-12T10:50:59.411Z,90.20
2022-09-12T10:53:30.997Z,90.00
2022-09-12T10:56:11.914Z,90.00
2022-09-12T10:58:54.176Z,90.10
2022-09-12T11:01:29.066Z,89.70
2022-09-12T11:04:20.340Z,90.30
2022-09-12T11:07:02.357Z,89.30
2022-09-12T11:09:41.026Z,90.00
2022-09-12T11:12:16.804Z,90.30
2022-09-12T11:14:49.601Z,88.30
2022-09-12T11:17:19.305Z,87.90
2022-09-12T11:20:08.483Z,85.60
2022-09-12T11:22:40.968Z,85.50
2022-09-12T11:25:10.614Z,85.50
2022-09-12T11:27:54.924Z,83.50
2022-09-12T11:30:22.060Z,82.70
2022-09-12T11:33:07.657Z,83.90
2022-09-12T11:35:45.579Z,82.60
2022-09-12T11:38:21.025Z,82.50
2022-09-12T11:40:47.613Z,81.70
2022-09-12T11:43:20.214Z,81.30
2022-09-12T11:45:47.835Z,81.10
2022-09-12T11:48:18.106Z,81.20
2022-09-12T11:50:44.907Z,79.30
2022-09-12T11:53:23.890Z,78.80
2022-09-12T11:55:54.661Z,80.10
2022-09-12T11:58:23.507Z,77.00
2022-09-12T12:00:53.464Z,77.30
2022-09-12T12:03:38.994Z,78.50
2022-09-12T12:06:14.105Z,78.40
2022-09-12T12:08:43.104Z,79.60
2022-09-12T12:11:11.219Z,77.40
2022-09-12T12:13:40.526Z,76.70
2022-09-12T12:16:08.791Z,77.50
2022-09-12T12:18:39.199Z,76.40
2022-09-12T12:21:25.342Z,77.30
2022-09-12T12:24:05.053Z,77.30
2022-09-12T12:26:41.373Z,75.50
2022-09-12T12:29:11.746Z,74.40
2022-09-12T12:31:58.723Z,72.40
2022-09-12T12:34:41.721Z,72.10
2022-09-12T12:37:25.561Z,71.40
2022-09-12T12:40:10.104Z,71.70
2022-09-12T12:42:37.153Z,70.70
2022-09-12T12:45:10.070Z,70.70
2022-09-12T12:47:44.361Z,72.60
2022-09-12T12:50:11.187Z,71.30
2022-09-12T12:52:55.356Z,72.30
2022-09-12T12:55:31.202Z,70.70
2022-09-12T12:57:59.070Z,68.90
2022-09-12T13:00:26.094Z,68.40
2022-09-12T13:03:01.126Z,68.60
2022-09-12T13:05:29.754Z,68.30
2022-09-12T13:08:06.215Z,68.90
2022-09-12T13:10:32.826Z,65.80
2022-09-12T13:13:05.156Z,67.90
2022-09-12T13:15:38.115Z,66.70
2022-09-12T13:18:33.002Z,66.20
2022-09-12T13:21:11.937Z,66.40
2022-09-12T13:23:38.665Z,66.90
2022-09-12T13:26:10.509Z,66.20
2022-09-12T13:28:37.173Z,66.30
2022-09-12T13:31:06.924Z,66.90
2022-09-12T13:33:38.096Z,65.70
2022-09-12T13:36:23.548Z,64.30
2022-09-12T13:38:56.146Z,63.60
2022-09-12T13:41:25.861Z,63.10
2022-09-12T13:43:52.571Z,63.80
2022-09-12T13:46:26.684Z,63.70
2022-09-12T13:48:53.810Z,64.30
2022-09-12T13:51:22.754Z,64.10
2022-09-12T13:53:50.615Z,64.70
2022-09-12T13:56:18.500Z,65.30
2022-09-12T13:58:56.831Z,65.50
2022-09-12T14:01:40.524Z,63.60
2022-09-12T14:04:39.628Z,64.50
2022-09-12T14:07:20.365Z,64.30
2022-09-12T14:09:54.073Z,62.40
2022-09-12T14:12:25.353Z,62.40
2022-09-12T14:14:52.850Z,64.00
2022-09-12T14:17:24.578Z,60.30
2022-09-12T14:19:52.763Z,60.60
2022-09-12T14:22:19.506Z,60.80
2022-09-12T14:24:50.011Z,58.40
2022-09-12T14:27:18.734Z,59.60
2022-09-12T14:29:45.647Z,59.20
2022-09-12T14:32:21.034Z,59.30
2022-09-12T14:35:06.383Z,59.70
2022-09-12T14:37:33.182Z,59.90
2022-09-12T14:40:00.183Z,59.90
2022-09-12T14:42:29.672Z,59.50
2022-09-12T14:45:01.314Z,60.20
2022-09-12T14:47:33.540Z,59.10
2022-09-12T14:50:00.329Z,55.80
2022-09-12T14:52:33.725Z,56.90
2022-09-12T14:55:19.510Z,57.60
2022-09-12T14:57:46.312Z,57.10
2022-09-12T15:00:12.929Z,58.10
2022-09-12T15:02:39.806Z,59.00
2022-09-12T15:05:06.317Z,59.20
2022-09-12T15:07:34.547Z,60.90
2022-09-12T15:10:02.670Z,59.90
2022-09-12T15:12:29.266Z,59.70
2022-09-12T15:15:00.911Z,59.60
2022-09-12T15:17:27.474Z,60.60
2022-09-12T15:19:54.121Z,60.90
2022-09-12T15:22:23.675Z,59.60
2022-09-12T15:24:50.463Z,60.80
2022-09-12T15:27:17.034Z,59.60
2022-09-12T15:29:43.618Z,60.30
2022-09-12T15:32:15.014Z,59.40
2022-09-12T15:34:41.586Z,56.80
2022-09-12T15:37:12.611Z,58.40
2022-09-12T15:39:39.299Z,58.10
2022-09-12T15:42:06.010Z,57.60
2022-09-12T15:44:32.558Z,57.40
2022-09-12T15:46:59.137Z,57.90
2022-09-12T15:49:25.673Z,57.80
2022-09-12T15:51:52.230Z,58.00
2022-09-12T15:54:19.466Z,58.80
2022-09-12T15:56:46.019Z,58.00
2022-09-12T15:59:13.506Z,55.40
2022-09-12T16:01:40.166Z,56.10
2022-09-12T16:04:19.661Z,55.10
2022-09-12T16:06:46.292Z,53.70
2022-09-12T16:09:16.651Z,52.50
2022-09-12T16:11:43.512Z,52.60
2022-09-12T16:14:10.224Z,51.30
2022-09-12T16:16:36.916Z,49.50
2022-09-12T16:19:03.849Z,48.20
2022-09-12T16:21:31.763Z,46.60
2022-09-12T16:23:58.373Z,47.90
2022-09-12T16:26:24.902Z,47.50
2022-09-12T16:29:00.645Z,45.60
2022-09-12T16:31:27.626Z,45.50
2022-09-12T16:33:54.414Z,44.70
2022-09-12T16:36:22.302Z,46.30
2022-09-12T16:38:50.239Z,46.00
2022-09-12T16:41:17.669Z,45.20
2022-09-12T16:43:45.413Z,43.20
2022-09-12T16:46:16.362Z,44.60
2022-09-12T16:48:48.093Z,46.00
2022-09-12T16:51:21.828Z,47.20
2022-09-12T16:53:48.829Z,47.70
2022-09-12T16:56:15.474Z,48.00
2022-09-12T16:58:42.572Z,49.70
2022-09-12T17:01:13.617Z,49.30
2022-09-12T17:03:40.726Z,50.10
2022-09-12T17:06:08.796Z,51.00
2022-09-12T17:08:36.622Z,52.30
2022-09-12T17:11:05.136Z,52.90
2022-09-12T17:13:46.890Z,54.30
2022-09-12T17:16:19.145Z,55.60
2022-09-12T17:18:45.819Z,56.90
2022-09-12T17:21:12.686Z,58.10
2022-09-12T17:23:39.592Z,58.90
2022-09-12T17:26:06.747Z,59.80
2022-09-12T17:28:33.310Z,60.30
2022-09-12T17:31:01.295Z,60.90
2022-09-12T17:33:28.663Z,61.20
2022-09-12T17:35:55.601Z,62.00
2022-09-12T17:38:25.400Z,62.50
2022-09-12T17:40:59.379Z,62.80
2022-09-12T17:43:26.335Z,63.10
2022-09-12T17:45:57.185Z,63.80
2022-09-12T17:48:23.808Z,64.20
2022-09-12T17:50:50.641Z,65.00
2022-09-12T17:53:17.796Z,65.70
2022-09-12T17:55:44.399Z,66.20
2022-09-12T17:58:11.197Z,66.50
2022-09-12T18:00:56.567Z,66.90
2022-09-12T18:03:23.600Z,67.30
2022-09-12T18:05:53.986Z,67.70
2022-09-12T18:08:21.614Z,68.70
2022-09-12T18:10:48.589Z,68.30
2022-09-12T18:13:16.049Z,68.80
2022-09-12T18:15:42.760Z,68.90
2022-09-12T18:18:09.494Z,69.10
2022-09-12T18:20:36.178Z,69.40
2022-09-12T18:23:02.765Z,69.80
2022-09-12T18:25:29.313Z,70.20
2022-09-12T18:27:55.888Z,70.80
2022-09-12T18:30:23.439Z,71.10
2022-09-12T18:32:50.477Z,71.60
2022-09-12T18:35:17.312Z,72.10
2022-09-12T18:37:44.819Z,72.60
2022-09-12T18:40:11.590Z,73.00
2022-09-12T18:42:38.266Z,73.10
2022-09-12T18:45:05.051Z,73.50
2022-09-12T18:47:31.906Z,73.90
2022-09-12T18:49:58.553Z,74.30
2022-09-12T18:52:25.117Z,74.70
2022-09-12T18:54:51.668Z,75.20
2022-09-12T18:57:18.245Z,75.40
2022-09-12T18:59:45.026Z,75.50
2022-09-12T19:02:16.070Z,75.60
2022-09-12T19:04:42.636Z,75.80
2022-09-12T19:07:09.589Z,76.50
2022-09-12T19:09:36.282Z,76.90
2022-09-12T19:12:03.005Z,77.10
2022-09-12T19:14:29.651Z,77.30
2022-09-12T19:16:56.284Z,77.60
2022-09-12T19:19:22.915Z,77.80
2022-09-12T19:21:49.494Z,78.10
2022-09-12T19:24:17.001Z,78.30
2022-09-12T19:26:43.908Z,78.60
2022-09-12T19:29:10.846Z,78.60
2022-09-12T19:31:37.460Z,78.70
2022-09-12T19:34:05.524Z,79.00
2022-09-12T19:36:47.862Z,79.60
2022-09-12T19:39:16.163Z,79.90
2022-09-12T19:41:42.928Z,79.90
2022-09-12T19:44:09.534Z,79.80
2022-09-12T19:46:36.269Z,80.10
2022-09-12T19:49:03.302Z,80.60
2022-09-12T19:51:29.885Z,80.90
2022-09-12T19:53:56.538Z,81.10
2022-09-12T19:56:23.169Z,81.50
2022-09-12T19:58:55.760Z,81.80
2022-09-12T20:01:24.906Z,82.10
2022-09-12T20:03:53.722Z,82.70
2022-09-12T20:06:20.539Z,83.10
2022-09-12T20:08:47.331Z,83.40
2022-09-12T20:11:17.846Z,83.50
2022-09-12T20:13:45.127Z,83.60
2022-09-12T20:16:19.038Z,83.80
2022-09-12T20:18:49.319Z,83.90
2022-09-12T20:21:17.023Z,83.90
2022-09-12T20:23:44.221Z,84.00
2022-09-12T20:26:11.423Z,84.00
2022-09-12T20:28:38.621Z,84.20
2022-09-12T20:31:06.781Z,84.40
2022-09-12T20:33:33.468Z,84.60
2022-09-12T20:36:03.090Z,84.90
2022-09-12T20:38:29.785Z,84.90
2022-09-12T20:40:56.398Z,85.00
2022-09-12T20:43:22.974Z,84.90
2022-09-12T20:45:49.575Z,85.20
2022-09-12T20:48:16.105Z,85.30
2022-09-12T20:50:42.651Z,85.40
2022-09-12T20:53:09.212Z,85.70
2022-09-12T20:55:35.802Z,85.60
2022-09-12T20:58:02.390Z,85.90
2022-09-12T21:00:30.426Z,86.10
2022-09-12T21:02:57.060Z,86.20
2022-09-12T21:05:23.671Z,86.30
2022-09-12T21:07:50.234Z,86.20
2022-09-12T21:10:16.979Z,86.40
2022-09-12T21:12:43.563Z,86.50
2022-09-12T21:15:10.474Z,86.80
2022-09-12T21:17:37.067Z,86.90
2022-09-12T21:20:06.067Z,86.60
2022-09-12T21:22:35.848Z,86.30
2022-09-12T21:25:02.412Z,86.80
2022-09-12T21:27:29.167Z,86.80
2022-09-12T21:29:55.876Z,86.70
2022-09-12T21:32:22.696Z,86.80
2022-09-12T21:34:49.257Z,86.80
2022-09-12T21:37:15.806Z,87.00
2022-09-12T21:39:42.412Z,87.80
2022-09-12T21:42:09.363Z,87.00
2022-09-12T21:44:35.918Z,86.00
2022-09-12T21:47:02.533Z,85.90
2022-09-12T21:49:29.120Z,86.50
2022-09-12T21:51:55.690Z,86.00
2022-09-12T21:54:22.311Z,85.00
2022-09-12T21:56:48.868Z,85.30
2022-09-12T21:59:15.427Z,84.70
2022-09-12T22:01:41.994Z,84.80
2022-09-12T22:04:09.445Z,85.20
2022-09-12T22:06:36.403Z,85.90
2022-09-12T22:09:03.639Z,85.10
2022-09-12T22:11:30.230Z,85.80
2022-09-12T22:13:56.786Z,86.20
2022-09-12T22:16:23.617Z,86.00
2022-09-12T22:18:50.704Z,86.10
2022-09-12T22:21:18.623Z,86.50
2022-09-12T22:24:04.034Z,85.60
2022-09-12T22:26:34.886Z,85.80
2022-09-12T22:29:01.977Z,85.40
2022-09-12T22:31:28.714Z,85.60
2022-09-12T22:33:57.032Z,85.50
2022-09-12T22:36:24.919Z,85.90
2022-09-12T22:38:53.714Z,85.90
2022-09-12T22:41:20.332Z,85.70
2022-09-12T22:43:46.974Z,86.70
2022-09-12T22:46:14.087Z,86.30
2022-09-12T22:48:40.837Z,86.30
2022-09-12T22:51:07.438Z,86.10
2022-09-12T22:53:34.511Z,86.30
2022-09-12T22:56:01.349Z,86.60
2022-09-12T22:58:27.903Z,86.50
2022-09-12T23:00:54.927Z,87.60
2022-09-12T23:03:21.643Z,87.20
2022-09-12T23:05:48.522Z,87.30
2022-09-12T23:08:16.258Z,87.30
2022-09-12T23:10:43.907Z,87.30
2022-09-12T23:13:10.839Z,87.50
2022-09-12T23:15:37.394Z,87.50
2022-09-12T23:18:05.217Z,87.80
2022-09-12T23:20:31.988Z,87.50
2022-09-12T23:22:58.539Z,87.60
2022-09-12T23:25:26.254Z,88.00
2022-09-12T23:27:53.400Z,88.70
2022-09-12T23:30:21.254Z,89.20
2022-09-12T23:32:48.749Z,89.40
2022-09-12T23:35:17.967Z,89.60
2022-09-12T23:37:44.679Z,89.80
2022-09-12T23:40:11.565Z,89.90
2022-09-12T23:42:38.155Z,90.00
2022-09-12T23:45:05.179Z,90.00
2022-09-12T23:47:31.755Z,90.00
2022-09-12T23:49:58.347Z,90.00
2022-09-12T23:52:24.932Z,90.00
2022-09-12T23:54:51.489Z,90.00
2022-09-12T23:57:18.102Z,90.10
2022-09-12T23:59:44.683Z,90.10
